createdAt,value
2023-02-03T00:01:54.026Z,74.20
2023-02-03T00:04:20.760Z,74.20
2023-02-03T00:06:47.807Z,74.20
2023-02-03T00:09:15.540Z,74.40
2023-02-03T00:11:42.468Z,74.20
2023-02-03T00:14:09.239Z,74.20
2023-02-03T00:16:36.154Z,74.20
2023-02-03T00:19:03.624Z,74.20
2023-02-03T00:21:30.622Z,74.20
2023-02-03T00:23:57.570Z,74.10
2023-02-03T00:26:26.001Z,74.20
2023-02-03T00:28:52.851Z,74.10
2023-02-03T00:31:22.593Z,74.20
2023-02-03T00:33:55.195Z,74.10
2023-02-03T00:36:23.241Z,74.00
2023-02-03T00:38:50.674Z,74.00
2023-02-03T00:41:21.175Z,74.00
2023-02-03T00:43:48.972Z,74.00
2023-02-03T00:46:16.254Z,73.90
2023-02-03T00:48:43.275Z,73.90
2023-02-03T00:51:10.286Z,73.90
2023-02-03T00:53:37.107Z,74.00
2023-02-03T00:56:04.085Z,73.80
2023-02-03T00:58:30.918Z,73.80
2023-02-03T01:00:57.887Z,73.80
2023-02-03T01:03:25.251Z,73.70
2023-02-03T01:05:52.292Z,73.60
2023-02-03T01:08:20.066Z,73.60
2023-02-03T01:10:47.045Z,73.60
2023-02-03T01:13:14.070Z,73.60
2023-02-03T01:15:48.149Z,73.50
2023-02-03T01:18:15.349Z,73.40
2023-02-03T01:20:44.184Z,73.40
2023-02-03T01:23:10.945Z,73.40
2023-02-03T01:25:37.995Z,73.30
2023-02-03T01:28:06.016Z,73.40
2023-02-03T01:30:33.097Z,73.40
2023-02-03T01:32:59.909Z,73.40
2023-02-03T01:35:27.080Z,73.40
2023-02-03T01:37:54.112Z,73.40
2023-02-03T01:40:20.916Z,73.30
2023-02-03T01:42:47.699Z,73.20
2023-02-03T01:45:14.478Z,73.20
2023-02-03T01:47:50.741Z,73.20
2023-02-03T01:50:26.473Z,73.30
2023-02-03T01:52:59.341Z,73.30
2023-02-03T01:55:34.223Z,74.20
2023-02-03T01:58:09.887Z,73.40
2023-02-03T02:00:36.961Z,73.30
2023-02-03T02:03:05.925Z,73.30
2023-02-03T02:05:40.570Z,73.30
2023-02-03T02:08:08.989Z,73.20
2023-02-03T02:10:35.894Z,73.20
2023-02-03T02:13:04.906Z,73.00
2023-02-03T02:16:24.195Z,73.00
2023-02-03T02:19:23.268Z,72.80
2023-02-03T02:22:17.332Z,72.70
2023-02-03T02:25:05.706Z,72.80
2023-02-03T02:27:53.892Z,72.60
2023-02-03T02:30:52.664Z,72.50
2023-02-03T02:33:41.238Z,72.50
2023-02-03T02:36:28.256Z,72.30
2023-02-03T02:39:14.324Z,72.10
2023-02-03T02:41:52.422Z,72.00
2023-02-03T02:44:28.551Z,72.80
2023-02-03T02:47:00.308Z,71.80
2023-02-03T02:49:49.329Z,71.80
2023-02-03T02:52:18.302Z,71.80
2023-02-03T02:54:51.228Z,71.80
2023-02-03T02:57:21.477Z,71.70
2023-02-03T02:59:49.687Z,71.70
2023-02-03T03:02:17.199Z,71.80
2023-02-03T03:04:48.188Z,72.00
2023-02-03T03:07:22.220Z,72.10
2023-02-03T03:09:56.983Z,72.20
2023-02-03T03:12:35.191Z,72.30
2023-02-03T03:15:11.543Z,72.30
2023-02-03T03:17:44.398Z,72.40
2023-02-03T03:20:15.947Z,72.40
2023-02-03T03:22:48.276Z,72.50
2023-02-03T03:25:22.179Z,72.40
2023-02-03T03:27:56.775Z,72.20
2023-02-03T03:30:28.857Z,72.20
2023-02-03T03:32:56.437Z,72.20
2023-02-03T03:35:23.783Z,72.20
2023-02-03T03:38:06.316Z,72.10
2023-02-03T03:40:53.158Z,71.90
2023-02-03T03:43:24.305Z,71.70
2023-02-03T03:46:03.061Z,71.80
2023-02-03T03:48:55.934Z,71.70
2023-02-03T03:51:35.070Z,71.80
2023-02-03T03:54:10.668Z,71.60
2023-02-03T03:57:00.083Z,71.50
2023-02-03T03:59:31.326Z,71.40
2023-02-03T04:02:04.414Z,71.30
2023-02-03T04:04:34.042Z,71.30
2023-02-03T04:07:00.917Z,71.10
2023-02-03T04:09:27.739Z,71.10
2023-02-03T04:12:03.486Z,71.10
2023-02-03T04:14:31.527Z,71.00
2023-02-03T04:16:58.818Z,71.00
2023-02-03T04:19:25.937Z,71.10
2023-02-03T04:21:53.091Z,71.00
2023-02-03T04:24:20.087Z,71.10
2023-02-03T04:26:46.827Z,71.10
2023-02-03T04:29:13.573Z,71.10
2023-02-03T04:31:40.521Z,71.10
2023-02-03T04:34:07.516Z,71.00
2023-02-03T04:36:34.525Z,71.00
2023-02-03T04:39:01.401Z,71.00
2023-02-03T04:41:28.189Z,71.10
2023-02-03T04:43:55.033Z,71.00
2023-02-03T04:46:22.425Z,71.20
2023-02-03T04:48:49.429Z,71.10
2023-02-03T04:51:16.218Z,71.00
2023-02-03T04:53:42.916Z,71.10
2023-02-03T04:56:09.758Z,71.10
2023-02-03T04:58:37.162Z,71.00
2023-02-03T05:01:10.496Z,71.20
2023-02-03T05:03:37.563Z,71.10
2023-02-03T05:06:05.631Z,71.10
2023-02-03T05:08:32.754Z,71.10
2023-02-03T05:11:01.876Z,71.00
2023-02-03T05:13:29.398Z,71.10
2023-02-03T05:15:56.332Z,71.10
2023-02-03T05:18:23.159Z,71.00
2023-02-03T05:20:49.992Z,71.20
2023-02-03T05:23:16.953Z,71.10
2023-02-03T05:25:45.153Z,71.40
2023-02-03T05:28:12.289Z,71.20
2023-02-03T05:30:39.321Z,71.10
2023-02-03T05:33:06.352Z,71.20
2023-02-03T05:35:33.515Z,71.20
2023-02-03T05:38:00.697Z,71.20
2023-02-03T05:40:46.622Z,71.10
2023-02-03T05:43:13.583Z,71.20
2023-02-03T05:45:40.379Z,71.20
2023-02-03T05:48:10.086Z,71.20
2023-02-03T05:50:38.821Z,71.20
2023-02-03T05:53:08.624Z,71.20
2023-02-03T05:55:36.432Z,71.20
2023-02-03T05:58:03.884Z,71.20
2023-02-03T06:00:31.069Z,71.30
2023-02-03T06:03:00.728Z,71.30
2023-02-03T06:05:28.056Z,71.20
2023-02-03T06:07:55.201Z,71.20
2023-02-03T06:10:22.536Z,71.20
2023-02-03T06:12:50.108Z,71.30
2023-02-03T06:15:17.508Z,71.30
2023-02-03T06:17:48.743Z,71.40
2023-02-03T06:20:17.904Z,71.30
2023-02-03T06:22:44.972Z,71.30
2023-02-03T06:25:14.272Z,71.40
2023-02-03T06:27:41.429Z,71.40
2023-02-03T06:30:09.147Z,71.40
2023-02-03T06:32:36.062Z,71.40
2023-02-03T06:35:02.870Z,71.40
2023-02-03T06:37:29.711Z,71.30
2023-02-03T06:39:56.581Z,71.40
2023-02-03T06:42:23.308Z,71.50
2023-02-03T06:44:50.073Z,71.50
2023-02-03T06:47:16.799Z,71.40
2023-02-03T06:49:43.605Z,71.50
2023-02-03T06:52:10.404Z,71.50
2023-02-03T06:54:37.503Z,71.70
2023-02-03T06:57:04.285Z,71.70
2023-02-03T06:59:31.032Z,71.70
2023-02-03T07:01:57.931Z,71.80
2023-02-03T07:04:25.192Z,71.80
2023-02-03T07:06:51.971Z,71.90
2023-02-03T07:09:18.691Z,71.90
2023-02-03T07:11:45.465Z,71.90
2023-02-03T07:14:12.170Z,71.90
2023-02-03T07:16:38.943Z,71.90
2023-02-03T07:19:06.232Z,71.90
2023-02-03T07:21:32.989Z,71.90
2023-02-03T07:23:59.747Z,71.90
2023-02-03T07:26:26.615Z,72.00
2023-02-03T07:28:54.441Z,72.80
2023-02-03T07:31:21.669Z,72.10
2023-02-03T07:33:48.908Z,72.20
2023-02-03T07:36:15.847Z,72.10
2023-02-03T07:38:42.597Z,72.10
2023-02-03T07:41:09.472Z,72.10
2023-02-03T07:43:36.370Z,72.20
2023-02-03T07:46:03.328Z,72.20
2023-02-03T07:48:30.284Z,72.20
2023-02-03T07:50:57.094Z,72.20
2023-02-03T07:53:24.029Z,72.20
2023-02-03T07:55:51.032Z,72.20
2023-02-03T07:58:17.792Z,72.20
2023-02-03T08:00:44.848Z,72.40
2023-02-03T08:03:11.631Z,72.30
2023-02-03T08:05:38.457Z,72.40
2023-02-03T08:08:05.386Z,72.50
2023-02-03T08:10:32.401Z,72.30
2023-02-03T08:12:59.190Z,72.30
2023-02-03T08:15:25.910Z,72.30
2023-02-03T08:17:52.705Z,72.30
2023-02-03T08:20:19.591Z,72.30
2023-02-03T08:22:46.470Z,72.30
2023-02-03T08:25:13.487Z,72.40
2023-02-03T08:27:41.124Z,72.40
2023-02-03T08:30:11.457Z,72.30
2023-02-03T08:32:38.396Z,72.30
2023-02-03T08:35:06.117Z,72.30
2023-02-03T08:37:33.096Z,72.20
2023-02-03T08:40:00.111Z,72.20
2023-02-03T08:42:27.352Z,72.20
2023-02-03T08:44:54.171Z,72.10
2023-02-03T08:47:21.035Z,72.20
2023-02-03T08:49:48.024Z,72.10
2023-02-03T08:52:18.012Z,72.10
2023-02-03T08:54:46.425Z,71.90
2023-02-03T08:57:13.535Z,72.00
2023-02-03T08:59:42.325Z,71.90
2023-02-03T09:02:14.494Z,71.80
2023-02-03T09:04:41.343Z,71.90
2023-02-03T09:07:08.453Z,71.90
2023-02-03T09:09:35.510Z,71.80
2023-02-03T09:12:02.632Z,71.70
2023-02-03T09:14:30.389Z,71.80
2023-02-03T09:16:57.247Z,71.60
2023-02-03T09:19:24.214Z,71.50
2023-02-03T09:21:51.389Z,71.60
2023-02-03T09:24:18.889Z,71.60
2023-02-03T09:26:45.823Z,71.50
2023-02-03T09:29:14.667Z,71.50
2023-02-03T09:31:41.751Z,71.40
2023-02-03T09:34:08.829Z,71.50
2023-02-03T09:36:37.498Z,71.40
2023-02-03T09:39:04.819Z,71.20
2023-02-03T09:41:55.597Z,71.30
2023-02-03T09:44:37.269Z,71.50
2023-02-03T09:47:17.046Z,71.30
2023-02-03T09:49:56.710Z,71.40
2023-02-03T09:52:32.400Z,71.20
2023-02-03T09:55:11.317Z,71.00
2023-02-03T09:57:48.054Z,71.00
2023-02-03T10:00:22.016Z,71.00
2023-02-03T10:03:12.242Z,71.10
2023-02-03T10:06:13.850Z,71.00
2023-02-03T10:09:05.326Z,70.80
2023-02-03T10:11:49.755Z,70.90
2023-02-03T10:14:44.731Z,71.00
2023-02-03T10:17:32.671Z,71.00
2023-02-03T10:20:05.010Z,70.90
2023-02-03T10:22:43.292Z,70.70
2023-02-03T10:25:25.872Z,70.60
2023-02-03T10:27:58.643Z,70.50
2023-02-03T10:30:38.406Z,70.60
2023-02-03T10:33:14.034Z,70.80
2023-02-03T10:35:54.737Z,70.60
2023-02-03T10:38:36.758Z,70.60
2023-02-03T10:41:04.297Z,70.60
2023-02-03T10:43:47.454Z,70.40
2023-02-03T10:46:16.084Z,70.30
2023-02-03T10:48:43.311Z,70.60
2023-02-03T10:51:35.112Z,70.30
2023-02-03T10:54:02.104Z,70.50
2023-02-03T10:56:37.289Z,70.40
2023-02-03T10:59:06.559Z,70.30
2023-02-03T11:01:42.675Z,70.50
2023-02-03T11:04:27.218Z,70.20
2023-02-03T11:06:56.341Z,70.20
2023-02-03T11:09:31.476Z,70.10
2023-02-03T11:12:16.277Z,70.10
2023-02-03T11:14:48.068Z,70.10
2023-02-03T11:17:22.916Z,70.30
2023-02-03T11:19:51.883Z,70.20
2023-02-03T11:22:38.884Z,70.10
2023-02-03T11:25:21.313Z,70.00
2023-02-03T11:27:48.201Z,69.70
2023-02-03T11:30:17.321Z,70.00
2023-02-03T11:32:46.526Z,69.90
2023-02-03T11:35:13.356Z,69.80
2023-02-03T11:37:42.185Z,69.90
2023-02-03T11:40:09.097Z,69.80
2023-02-03T11:42:38.675Z,69.80
2023-02-03T11:45:42.152Z,70.00
2023-02-03T11:48:24.230Z,69.60
2023-02-03T11:51:06.018Z,69.60
2023-02-03T11:53:44.764Z,69.50
2023-02-03T11:56:29.805Z,69.40
2023-02-03T11:59:35.801Z,69.50
2023-02-03T12:02:44.357Z,69.50
2023-02-03T12:05:30.108Z,69.40
2023-02-03T12:08:09.990Z,69.20
2023-02-03T12:10:57.243Z,69.20
2023-02-03T12:13:52.153Z,69.10
2023-02-03T12:16:46.095Z,69.20
2023-02-03T12:19:29.941Z,69.40
2023-02-03T12:22:48.586Z,69.40
2023-02-03T12:25:35.806Z,69.40
2023-02-03T12:28:34.852Z,69.40
2023-02-03T12:31:32.927Z,69.00
2023-02-03T12:34:22.681Z,68.70
2023-02-03T12:37:12.619Z,68.60
2023-02-03T12:39:47.919Z,68.70
2023-02-03T12:42:23.658Z,69.00
2023-02-03T12:45:08.837Z,68.90
2023-02-03T12:47:43.353Z,69.20
2023-02-03T12:50:46.086Z,69.20
2023-02-03T12:53:32.066Z,69.10
2023-02-03T12:56:28.336Z,69.10
2023-02-03T12:59:01.925Z,69.00
2023-02-03T13:01:34.435Z,69.10
2023-02-03T13:04:24.805Z,68.90
2023-02-03T13:07:04.915Z,69.00
2023-02-03T13:09:37.081Z,69.00
2023-02-03T13:12:07.199Z,70.10
2023-02-03T13:14:45.539Z,69.30
2023-02-03T13:17:20.446Z,69.60
2023-02-03T13:19:55.109Z,69.60
2023-02-03T13:22:23.957Z,69.40
2023-02-03T13:24:58.076Z,69.60
2023-02-03T13:27:27.906Z,69.80
2023-02-03T13:30:10.006Z,69.90
2023-02-03T13:32:42.515Z,70.10
2023-02-03T13:35:34.295Z,69.90
2023-02-03T13:38:10.584Z,69.80
2023-02-03T13:41:02.406Z,70.00
2023-02-03T13:43:44.796Z,70.10
2023-02-03T13:46:25.759Z,70.10
2023-02-03T13:48:54.211Z,69.90
2023-02-03T13:51:25.653Z,69.70
2023-02-03T13:54:00.137Z,69.90
2023-02-03T13:56:30.888Z,70.00
2023-02-03T13:59:15.824Z,70.20
2023-02-03T14:01:43.528Z,70.10
2023-02-03T14:04:25.747Z,70.20
2023-02-03T14:06:52.584Z,70.30
2023-02-03T14:09:39.751Z,70.20
2023-02-03T14:12:21.796Z,70.20
2023-02-03T14:14:51.362Z,70.20
2023-02-03T14:17:54.596Z,70.20
2023-02-03T14:20:27.487Z,70.20
2023-02-03T14:23:18.190Z,70.20
2023-02-03T14:25:52.521Z,70.20
2023-02-03T14:28:28.101Z,70.10
2023-02-03T14:31:12.263Z,70.20
2023-02-03T14:33:45.777Z,70.00
2023-02-03T14:36:33.680Z,70.10
2023-02-03T14:39:24.954Z,70.00
2023-02-03T14:42:16.241Z,70.00
2023-02-03T14:44:54.343Z,69.90
2023-02-03T14:47:35.378Z,70.00
2023-02-03T14:50:22.549Z,69.90
2023-02-03T14:52:58.435Z,69.80
2023-02-03T14:55:56.474Z,70.00
2023-02-03T14:59:04.115Z,69.60
2023-02-03T15:01:37.178Z,69.50
2023-02-03T15:04:12.459Z,69.50
2023-02-03T15:06:43.267Z,69.60
2023-02-03T15:09:37.760Z,69.50
2023-02-03T15:12:26.160Z,69.50
2023-02-03T15:15:23.561Z,69.30
2023-02-03T15:17:55.645Z,69.50
2023-02-03T15:20:31.751Z,69.30
2023-02-03T15:22:59.258Z,69.10
2023-02-03T15:25:28.739Z,69.10
2023-02-03T15:28:13.920Z,69.10
2023-02-03T15:30:41.515Z,69.10
2023-02-03T15:33:15.180Z,69.10
2023-02-03T15:35:45.415Z,69.20
2023-02-03T15:38:24.030Z,69.30
2023-02-03T15:40:57.823Z,69.40
2023-02-03T15:43:39.957Z,69.30
2023-02-03T15:46:23.794Z,69.40
2023-02-03T15:49:12.588Z,69.50
2023-02-03T15:51:44.835Z,69.50
2023-02-03T15:54:33.000Z,69.70
2023-02-03T15:57:14.013Z,69.80
2023-02-03T15:59:56.574Z,69.70
2023-02-03T16:02:34.319Z,69.70
2023-02-03T16:05:23.813Z,69.60
2023-02-03T16:07:50.955Z,69.80
2023-02-03T16:10:33.558Z,69.80
2023-02-03T16:13:35.329Z,69.70
2023-02-03T16:16:08.469Z,69.70
2023-02-03T16:18:36.845Z,69.90
2023-02-03T16:21:05.094Z,69.90
2023-02-03T16:23:32.317Z,70.10
2023-02-03T16:26:17.644Z,70.30
2023-02-03T16:29:13.629Z,70.40
2023-02-03T16:32:04.568Z,70.50
2023-02-03T16:34:50.108Z,70.50
2023-02-03T16:37:53.840Z,70.40
2023-02-03T16:40:42.276Z,70.30
2023-02-03T16:43:33.582Z,70.30
2023-02-03T16:46:20.386Z,70.30
2023-02-03T16:49:05.989Z,70.30
2023-02-03T16:51:41.132Z,70.40
2023-02-03T16:54:13.304Z,70.40
2023-02-03T16:56:40.346Z,70.40
2023-02-03T16:59:07.438Z,70.50
2023-02-03T17:01:34.300Z,70.60
2023-02-03T17:04:01.559Z,70.80
2023-02-03T17:06:28.854Z,71.00
2023-02-03T17:08:57.823Z,71.10
2023-02-03T17:11:26.956Z,71.30
2023-02-03T17:13:54.251Z,71.40
2023-02-03T17:16:23.886Z,71.50
2023-02-03T17:18:51.360Z,71.50
2023-02-03T17:21:21.792Z,71.50
2023-02-03T17:23:48.794Z,71.70
2023-02-03T17:26:15.790Z,71.70
2023-02-03T17:28:43.489Z,71.70
2023-02-03T17:31:16.937Z,71.60
2023-02-03T17:33:44.486Z,71.50
2023-02-03T17:36:12.768Z,71.30
2023-02-03T17:55:11.920Z,69.30
2023-02-03T17:57:39.119Z,69.10
2023-02-03T18:00:07.448Z,68.60
2023-02-03T18:02:39.501Z,68.20
2023-02-03T18:05:07.073Z,67.80
2023-02-03T18:07:34.047Z,67.70
2023-02-03T18:10:00.851Z,67.20
2023-02-03T18:12:27.827Z,66.90
2023-02-03T18:14:55.046Z,66.70
2023-02-03T18:17:22.519Z,66.50
2023-02-03T18:19:55.852Z,66.40
2023-02-03T18:22:23.762Z,66.00
2023-02-03T18:24:54.835Z,66.00
2023-02-03T18:27:21.780Z,65.80
2023-02-03T18:29:48.520Z,65.50
2023-02-03T18:32:16.413Z,65.50
2023-02-03T18:34:43.900Z,65.20
2023-02-03T18:37:11.147Z,64.70
2023-02-03T18:39:38.200Z,64.80
2023-02-03T18:42:07.064Z,64.70
2023-02-03T18:44:34.114Z,64.70
2023-02-03T18:47:07.054Z,64.70
2023-02-03T18:49:35.767Z,64.70
2023-02-03T18:52:02.797Z,64.70
2023-02-03T18:54:29.757Z,64.90
2023-02-03T18:56:58.914Z,65.10
2023-02-03T18:59:26.070Z,65.20
2023-02-03T19:01:53.043Z,65.30
2023-02-03T19:04:20.204Z,65.60
2023-02-03T19:06:47.662Z,65.80
2023-02-03T19:09:17.052Z,66.10
2023-02-03T19:11:44.445Z,66.20
2023-02-03T19:14:13.495Z,66.60
2023-02-03T19:16:40.518Z,67.00
2023-02-03T19:19:07.476Z,68.40
2023-02-03T19:21:34.468Z,67.90
2023-02-03T19:24:01.615Z,68.20
2023-02-03T19:26:28.553Z,68.50
2023-02-03T19:28:56.082Z,68.90
2023-02-03T19:31:23.079Z,69.10
2023-02-03T19:33:50.267Z,70.20
2023-02-03T19:36:17.111Z,69.50
2023-02-03T19:38:44.087Z,69.60
2023-02-03T19:41:11.800Z,69.80
2023-02-03T19:43:40.021Z,70.00
2023-02-03T19:46:07.919Z,70.10
2023-02-03T19:48:34.987Z,70.20
2023-02-03T19:51:01.804Z,70.30
2023-02-03T19:53:28.728Z,70.40
2023-02-03T19:55:55.596Z,70.50
2023-02-03T19:58:24.075Z,70.60
2023-02-03T20:00:51.427Z,70.60
2023-02-03T20:03:19.703Z,70.60
2023-02-03T20:05:47.041Z,70.60
2023-02-03T20:08:15.594Z,70.40
2023-02-03T20:10:45.169Z,70.30
2023-02-03T20:13:13.172Z,70.00
2023-02-03T20:15:40.364Z,69.80
2023-02-03T20:18:07.858Z,69.30
2023-02-03T20:20:35.197Z,68.60
2023-02-03T20:23:01.959Z,68.00
2023-02-03T20:25:29.104Z,67.30
2023-02-03T20:27:57.482Z,67.20
2023-02-03T20:30:24.347Z,67.10
2023-02-03T20:32:51.309Z,67.00
2023-02-03T20:35:18.089Z,66.60
2023-02-03T20:37:44.827Z,66.30
2023-02-03T20:40:23.510Z,66.60
2023-02-03T20:42:52.795Z,66.30
2023-02-03T20:45:21.837Z,66.50
2023-02-03T20:47:48.722Z,66.70
2023-02-03T20:50:31.621Z,67.00
2023-02-03T20:53:12.601Z,67.10
2023-02-03T20:55:39.389Z,67.30
2023-02-03T20:58:28.155Z,67.50
2023-02-03T21:00:57.393Z,67.30
2023-02-03T21:03:43.671Z,67.00
2023-02-03T21:06:20.340Z,66.50
2023-02-03T21:08:48.009Z,66.50
2023-02-03T21:11:20.424Z,66.50
2023-02-03T21:13:49.737Z,66.30
2023-02-03T21:16:23.041Z,66.20
2023-02-03T21:18:56.780Z,65.90
2023-02-03T21:21:35.196Z,65.80
2023-02-03T21:24:16.769Z,65.80
2023-02-03T21:26:43.534Z,65.40
2023-02-03T21:29:22.219Z,65.70
2023-02-03T21:31:49.139Z,65.80
2023-02-03T21:34:26.939Z,65.90
2023-02-03T21:36:54.184Z,65.80
2023-02-03T21:39:29.995Z,65.50
2023-02-03T21:42:00.227Z,65.80
2023-02-03T21:44:31.416Z,65.70
2023-02-03T21:47:03.711Z,65.60
2023-02-03T21:49:31.851Z,65.60
2023-02-03T21:51:58.609Z,65.60
2023-02-03T21:54:32.731Z,65.50
2023-02-03T21:57:00.388Z,66.30
2023-02-03T21:59:33.261Z,66.40
2023-02-03T22:02:00.182Z,65.80
2023-02-03T22:04:28.588Z,65.80
2023-02-03T22:06:56.291Z,65.90
2023-02-03T22:09:25.056Z,66.00
2023-02-03T22:11:52.687Z,66.10
2023-02-03T22:14:23.726Z,66.30
2023-02-03T22:16:50.597Z,66.30
2023-02-03T22:19:17.669Z,66.50
2023-02-03T22:21:44.919Z,66.60
2023-02-03T22:24:11.994Z,66.80
2023-02-03T22:26:38.941Z,66.90
2023-02-03T22:29:05.865Z,67.00
2023-02-03T22:31:33.058Z,67.30
2023-02-03T22:33:59.954Z,67.50
2023-02-03T22:36:26.749Z,67.80
2023-02-03T22:38:53.630Z,68.00
2023-02-03T22:41:21.666Z,68.30
2023-02-03T22:43:48.702Z,68.60
2023-02-03T22:46:15.536Z,68.90
2023-02-03T22:48:42.456Z,69.10
2023-02-03T22:51:09.353Z,69.30
2023-02-03T22:53:36.359Z,69.50
2023-02-03T22:56:03.232Z,69.70
2023-02-03T22:58:30.089Z,69.90
2023-02-03T23:00:56.952Z,70.20
2023-02-03T23:03:23.959Z,70.40
2023-02-03T23:05:50.790Z,70.50
2023-02-03T23:08:17.554Z,70.50
2023-02-03T23:10:44.418Z,70.30
2023-02-03T23:13:11.175Z,70.30
2023-02-03T23:15:38.074Z,70.30
2023-02-03T23:18:04.921Z,70.30
2023-02-03T23:20:32.031Z,70.20
2023-02-03T23:22:59.023Z,70.20
2023-02-03T23:25:25.894Z,70.00
2023-02-03T23:27:52.786Z,69.90
2023-02-03T23:30:19.770Z,69.80
2023-02-03T23:32:46.520Z,69.70
2023-02-03T23:35:32.124Z,69.40
2023-02-03T23:37:58.883Z,70.20
2023-02-03T23:40:25.665Z,69.30
2023-02-03T23:42:52.528Z,69.40
2023-02-03T23:45:19.425Z,69.30
2023-02-03T23:47:46.643Z,69.40
2023-02-03T23:50:16.311Z,69.40
2023-02-03T23:52:43.053Z,69.50
2023-02-03T23:55:19.058Z,69.60
2023-02-03T23:57:45.909Z,69.60
